Buffalo, WY (82834)

1:31 PM MST on February 01, 2015 (GMT -0700)
RAWS SCHOOL HOUSE WY US | Change Station
CLOSE
Current Station
Personal Weather Station
Location: Buffalo, WY
Elevation: 8604 ft
Nearby Weather Stations

Elev 8604 ft 44.31 °N, 106.98 °W | Updated 44 minutes ago

Clear
Clear
17 °F
Feels Like 11 °F
N
4
Wind Variable Wind from North
Gusts 5.0 mph

Today
High -- | Low -- °F
--% Chance of Precip.
Yesterday
High -- | Low -- °F
Precip. -- in
7:25 AM 5:16 PM
Waxing Gibbous, 96% visible
Pressure 30.33 in
Visibility 10.0 miles
Clouds Clear
Windchill 11 °F
Dew Point 5 °F
Humidity 59%
Rainfall 0.00 in
Snow Depth Not available.
UV 3 out of 12
Pollen .10 out of 12
Air Quality Not available.
Flu Activity Not available.
METAR KBYG 011953Z AUTO 16011KT 10SM CLR M06/M12 A3015 RMK AO2 SLP271 T10561122 $

More Conditions Fewer Conditions

Pressure 30.33 in
Visibility 10.0 miles
Clouds Clear
Windchill 11 °F
Dew Point 5 °F
Humidity 59%
Rainfall 0.00 in
Snow Depth Not available.
UV 3 out of 12
Pollen .10 out of 12
Air Quality Not available.
Flu Activity Not available.
METAR KBYG 011953Z AUTO 16011KT 10SM CLR M06/M12 A3015 RMK AO2 SLP271 T10561122 $

More Conditions Fewer Conditions

10-Day Weather Forecast

Almanac

Astronomy

Feb. 01, 2015 Rise Set
Actual Time
Civil Twilight
Nautical Twilight
Astronomical Twilight
Moon
Length of Visible Light
Length of Day
Tomorrow will be .
, % of the Moon is Illuminated

Today's Extremes

State Highs State Lows

Community

WunderPhotos

Upload Photos

1,792,511 photos uploaded!

WunderBlogs® & News

Nearby

Air Quality

  Air Quality AQ Index Pollutant
Not available.

Snow Depth

Station Depth Elevation

Earthquake Activity

City Distance Mag. Time & Date
Minimum magnitude displayed is 2.5.

Coastal Water Temperatures

Place Temperature

Nearby Weather Stations